sensor_id;sensor_type;location;lat;lon;timestamp;P1;durP1;ratioP1;P2;durP2;ratioP2
50769;SDS011;36740;48.698;11.472;2022-11-14T00:00:25;20.00;;;10.98;;
50769;SDS011;36740;48.698;11.472;2022-11-14T00:03:12;26.98;;;14.13;;
50769;SDS011;36740;48.698;11.472;2022-11-14T00:06:03;15.07;;;10.07;;
50769;SDS011;36740;48.698;11.472;2022-11-14T00:08:51;17.10;;;11.00;;
50769;SDS011;36740;48.698;11.472;2022-11-14T00:11:36;20.55;;;12.10;;
50769;SDS011;36740;48.698;11.472;2022-11-14T00:14:22;21.45;;;11.95;;
50769;SDS011;36740;48.698;11.472;2022-11-14T00:17:08;18.90;;;13.70;;
50769;SDS011;36740;48.698;11.472;2022-11-14T00:19:54;71.32;;;14.27;;
50769;SDS011;36740;48.698;11.472;2022-11-14T00:22:39;24.15;;;15.20;;
50769;SDS011;36740;48.698;11.472;2022-11-14T00:25:25;16.23;;;12.50;;
50769;SDS011;36740;48.698;11.472;2022-11-14T00:28:11;59.00;;;13.48;;
50769;SDS011;36740;48.698;11.472;2022-11-14T00:30:57;19.25;;;12.02;;
50769;SDS011;36740;48.698;11.472;2022-11-14T00:33:42;55.03;;;15.98;;
50769;SDS011;36740;48.698;11.472;2022-11-14T00:36:28;111.07;;;18.40;;
50769;SDS011;36740;48.698;11.472;2022-11-14T00:39:14;24.63;;;13.18;;
50769;SDS011;36740;48.698;11.472;2022-11-14T00:42:00;19.20;;;12.27;;
50769;SDS011;36740;48.698;11.472;2022-11-14T00:44:46;131.13;;;19.75;;
50769;SDS011;36740;48.698;11.472;2022-11-14T00:47:31;16.00;;;9.95;;
50769;SDS011;36740;48.698;11.472;2022-11-14T00:50:17;22.50;;;12.40;;
50769;SDS011;36740;48.698;11.472;2022-11-14T00:53:03;15.38;;;10.48;;
50769;SDS011;36740;48.698;11.472;2022-11-14T00:55:49;128.40;;;18.00;;
50769;SDS011;36740;48.698;11.472;2022-11-14T00:58:34;14.13;;;8.40;;
50769;SDS011;36740;48.698;11.472;2022-11-14T01:01:20;18.75;;;10.50;;
50769;SDS011;36740;48.698;11.472;2022-11-14T01:04:06;57.42;;;12.88;;
50769;SDS011;36740;48.698;11.472;2022-11-14T01:06:52;27.73;;;10.30;;
50769;SDS011;36740;48.698;11.472;2022-11-14T01:09:38;52.28;;;13.32;;
50769;SDS011;36740;48.698;11.472;2022-11-14T01:12:24;55.33;;;11.00;;
50769;SDS011;36740;48.698;11.472;2022-11-14T01:15:09;27.35;;;10.40;;
50769;SDS011;36740;48.698;11.472;2022-11-14T01:17:55;18.45;;;10.13;;
50769;SDS011;36740;48.698;11.472;2022-11-14T01:20:41;149.45;;;18.85;;
50769;SDS011;36740;48.698;11.472;2022-11-14T01:23:31;31.60;;;10.75;;
50769;SDS011;36740;48.698;11.472;2022-11-14T01:26:17;81.43;;;14.80;;
50769;SDS011;36740;48.698;11.472;2022-11-14T01:29:03;71.25;;;13.35;;
50769;SDS011;36740;48.698;11.472;2022-11-14T01:31:48;24.52;;;10.50;;
50769;SDS011;36740;48.698;11.472;2022-11-14T01:34:34;61.55;;;14.80;;
50769;SDS011;36740;48.698;11.472;2022-11-14T01:37:20;49.15;;;10.30;;
50769;SDS011;36740;48.698;11.472;2022-11-14T01:40:06;52.25;;;12.77;;
50769;SDS011;36740;48.698;11.472;2022-11-14T01:46:09;87.65;;;14.80;;
50769;SDS011;36740;48.698;11.472;2022-11-14T01:49:04;63.30;;;15.23;;
50769;SDS011;36740;48.698;11.472;2022-11-14T01:54:53;36.13;;;11.82;;
50769;SDS011;36740;48.698;11.472;2022-11-14T01:57:43;30.10;;;10.27;;
50769;SDS011;36740;48.698;11.472;2022-11-14T02:03:37;55.20;;;14.48;;
50769;SDS011;36740;48.698;11.472;2022-11-14T02:06:24;12.00;;;8.95;;
50769;SDS011;36740;48.698;11.472;2022-11-14T02:09:14;16.50;;;10.15;;
50769;SDS011;36740;48.698;11.472;2022-11-14T02:12:01;36.17;;;11.02;;
50769;SDS011;36740;48.698;11.472;2022-11-14T02:14:51;31.20;;;11.70;;
50769;SDS011;36740;48.698;11.472;2022-11-14T02:17:39;64.25;;;13.82;;
50769;SDS011;36740;48.698;11.472;2022-11-14T02:20:28;30.60;;;12.40;;
50769;SDS011;36740;48.698;11.472;2022-11-14T02:23:28;14.77;;;10.10;;
50769;SDS011;36740;48.698;11.472;2022-11-14T02:26:16;17.05;;;12.05;;
50769;SDS011;36740;48.698;11.472;2022-11-14T02:29:04;33.95;;;10.07;;
50769;SDS011;36740;48.698;11.472;2022-11-14T02:31:52;15.45;;;13.40;;
50769;SDS011;36740;48.698;11.472;2022-11-14T02:34:38;15.85;;;11.38;;
50769;SDS011;36740;48.698;11.472;2022-11-14T02:37:24;16.70;;;11.05;;
50769;SDS011;36740;48.698;11.472;2022-11-14T02:40:10;15.85;;;11.60;;
50769;SDS011;36740;48.698;11.472;2022-11-14T02:42:56;33.67;;;11.98;;
50769;SDS011;36740;48.698;11.472;2022-11-14T02:45:42;18.52;;;14.07;;
50769;SDS011;36740;48.698;11.472;2022-11-14T02:48:27;13.05;;;9.85;;
50769;SDS011;36740;48.698;11.472;2022-11-14T02:51:13;21.15;;;13.70;;
50769;SDS011;36740;48.698;11.472;2022-11-14T02:53:59;17.55;;;10.75;;
50769;SDS011;36740;48.698;11.472;2022-11-14T02:56:45;17.70;;;11.48;;
50769;SDS011;36740;48.698;11.472;2022-11-14T02:59:32;26.75;;;10.10;;
50769;SDS011;36740;48.698;11.472;2022-11-14T03:02:17;20.52;;;12.05;;
50769;SDS011;36740;48.698;11.472;2022-11-14T03:05:03;18.38;;;11.77;;
50769;SDS011;36740;48.698;11.472;2022-11-14T03:07:52;23.00;;;12.43;;
50769;SDS011;36740;48.698;11.472;2022-11-14T03:10:40;19.25;;;10.48;;
50769;SDS011;36740;48.698;11.472;2022-11-14T03:13:27;17.20;;;10.98;;
50769;SDS011;36740;48.698;11.472;2022-11-14T03:16:14;15.75;;;9.80;;
50769;SDS011;36740;48.698;11.472;2022-11-14T03:19:00;31.63;;;13.65;;
50769;SDS011;36740;48.698;11.472;2022-11-14T03:21:46;15.57;;;11.32;;
50769;SDS011;36740;48.698;11.472;2022-11-14T03:24:32;31.65;;;10.55;;
50769;SDS011;36740;48.698;11.472;2022-11-14T03:27:18;14.07;;;10.52;;
50769;SDS011;36740;48.698;11.472;2022-11-14T03:30:05;25.15;;;9.85;;
50769;SDS011;36740;48.698;11.472;2022-11-14T03:32:51;32.88;;;11.52;;
50769;SDS011;36740;48.698;11.472;2022-11-14T03:35:40;38.92;;;10.77;;
50769;SDS011;36740;48.698;11.472;2022-11-14T03:38:27;20.38;;;12.30;;
50769;SDS011;36740;48.698;11.472;2022-11-14T03:41:13;19.27;;;10.80;;
50769;SDS011;36740;48.698;11.472;2022-11-14T03:43:58;24.33;;;10.52;;
50769;SDS011;36740;48.698;11.472;2022-11-14T03:46:44;19.88;;;11.23;;
50769;SDS011;36740;48.698;11.472;2022-11-14T03:49:30;17.50;;;10.88;;
50769;SDS011;36740;48.698;11.472;2022-11-14T03:52:16;19.20;;;11.27;;
50769;SDS011;36740;48.698;11.472;2022-11-14T03:55:01;13.63;;;10.20;;
50769;SDS011;36740;48.698;11.472;2022-11-14T03:57:47;14.63;;;11.43;;
50769;SDS011;36740;48.698;11.472;2022-11-14T04:00:33;17.90;;;11.43;;
50769;SDS011;36740;48.698;11.472;2022-11-14T04:03:19;18.80;;;11.57;;
50769;SDS011;36740;48.698;11.472;2022-11-14T04:06:05;16.67;;;12.20;;
50769;SDS011;36740;48.698;11.472;2022-11-14T04:08:50;15.93;;;11.82;;
50769;SDS011;36740;48.698;11.472;2022-11-14T04:11:36;19.63;;;10.88;;
50769;SDS011;36740;48.698;11.472;2022-11-14T04:14:22;17.75;;;11.73;;
50769;SDS011;36740;48.698;11.472;2022-11-14T04:17:08;25.58;;;13.38;;
50769;SDS011;36740;48.698;11.472;2022-11-14T04:19:54;16.48;;;11.88;;
50769;SDS011;36740;48.698;11.472;2022-11-14T04:22:39;16.92;;;11.68;;
50769;SDS011;36740;48.698;11.472;2022-11-14T04:25:25;17.75;;;11.50;;
50769;SDS011;36740;48.698;11.472;2022-11-14T04:28:12;18.70;;;12.05;;
50769;SDS011;36740;48.698;11.472;2022-11-14T04:30:58;18.33;;;11.38;;
50769;SDS011;36740;48.698;11.472;2022-11-14T04:33:44;15.32;;;12.13;;
50769;SDS011;36740;48.698;11.472;2022-11-14T04:36:30;17.67;;;11.48;;
50769;SDS011;36740;48.698;11.472;2022-11-14T04:39:17;16.45;;;10.45;;
50769;SDS011;36740;48.698;11.472;2022-11-14T04:42:02;16.52;;;11.30;;
50769;SDS011;36740;48.698;11.472;2022-11-14T04:44:48;17.95;;;13.45;;
50769;SDS011;36740;48.698;11.472;2022-11-14T04:47:34;19.63;;;13.32;;
50769;SDS011;36740;48.698;11.472;2022-11-14T04:50:20;20.70;;;14.60;;
50769;SDS011;36740;48.698;11.472;2022-11-14T04:53:06;21.65;;;12.68;;
50769;SDS011;36740;48.698;11.472;2022-11-14T04:55:57;19.48;;;14.35;;
50769;SDS011;36740;48.698;11.472;2022-11-14T05:01:28;16.90;;;11.65;;
50769;SDS011;36740;48.698;11.472;2022-11-14T05:04:14;18.73;;;11.75;;
50769;SDS011;36740;48.698;11.472;2022-11-14T05:07:00;17.17;;;11.20;;
50769;SDS011;36740;48.698;11.472;2022-11-14T05:09:45;18.52;;;11.35;;
50769;SDS011;36740;48.698;11.472;2022-11-14T05:12:31;17.58;;;12.20;;
50769;SDS011;36740;48.698;11.472;2022-11-14T05:15:17;20.73;;;13.80;;
50769;SDS011;36740;48.698;11.472;2022-11-14T05:18:03;19.40;;;13.85;;
50769;SDS011;36740;48.698;11.472;2022-11-14T05:20:49;15.40;;;12.02;;
50769;SDS011;36740;48.698;11.472;2022-11-14T05:23:35;17.88;;;11.75;;
50769;SDS011;36740;48.698;11.472;2022-11-14T05:26:20;14.35;;;10.38;;
50769;SDS011;36740;48.698;11.472;2022-11-14T05:29:06;18.60;;;11.63;;
50769;SDS011;36740;48.698;11.472;2022-11-14T05:31:53;16.42;;;12.23;;
50769;SDS011;36740;48.698;11.472;2022-11-14T05:34:39;18.83;;;11.65;;
50769;SDS011;36740;48.698;11.472;2022-11-14T05:37:24;22.23;;;13.18;;
50769;SDS011;36740;48.698;11.472;2022-11-14T05:40:10;19.17;;;11.23;;
50769;SDS011;36740;48.698;11.472;2022-11-14T05:42:56;14.85;;;9.77;;
50769;SDS011;36740;48.698;11.472;2022-11-14T05:45:42;15.80;;;10.63;;
50769;SDS011;36740;48.698;11.472;2022-11-14T05:48:28;20.92;;;11.85;;
50769;SDS011;36740;48.698;11.472;2022-11-14T05:51:14;13.98;;;9.98;;
50769;SDS011;36740;48.698;11.472;2022-11-14T05:54:00;21.65;;;14.15;;
50769;SDS011;36740;48.698;11.472;2022-11-14T05:56:48;20.08;;;13.00;;
50769;SDS011;36740;48.698;11.472;2022-11-14T05:59:34;21.48;;;13.60;;
50769;SDS011;36740;48.698;11.472;2022-11-14T06:02:19;43.13;;;13.32;;
50769;SDS011;36740;48.698;11.472;2022-11-14T06:05:05;16.45;;;11.15;;
50769;SDS011;36740;48.698;11.472;2022-11-14T06:08:00;19.67;;;13.25;;
50769;SDS011;36740;48.698;11.472;2022-11-14T06:10:47;17.60;;;12.10;;
50769;SDS011;36740;48.698;11.472;2022-11-14T06:13:33;20.20;;;12.25;;
50769;SDS011;36740;48.698;11.472;2022-11-14T06:16:19;34.08;;;11.90;;
50769;SDS011;36740;48.698;11.472;2022-11-14T06:19:05;18.17;;;11.35;;
50769;SDS011;36740;48.698;11.472;2022-11-14T06:21:51;18.27;;;11.98;;
50769;SDS011;36740;48.698;11.472;2022-11-14T06:24:36;19.35;;;13.63;;
50769;SDS011;36740;48.698;11.472;2022-11-14T06:27:22;44.88;;;12.57;;
50769;SDS011;36740;48.698;11.472;2022-11-14T06:30:08;15.55;;;10.98;;
50769;SDS011;36740;48.698;11.472;2022-11-14T06:33:00;19.15;;;12.30;;
50769;SDS011;36740;48.698;11.472;2022-11-14T06:35:45;15.30;;;10.70;;
50769;SDS011;36740;48.698;11.472;2022-11-14T06:38:32;27.95;;;13.07;;
50769;SDS011;36740;48.698;11.472;2022-11-14T06:41:20;16.02;;;11.25;;
50769;SDS011;36740;48.698;11.472;2022-11-14T06:44:07;16.25;;;10.63;;
50769;SDS011;36740;48.698;11.472;2022-11-14T06:46:54;15.18;;;9.63;;
50769;SDS011;36740;48.698;11.472;2022-11-14T06:49:41;14.82;;;9.32;;
50769;SDS011;36740;48.698;11.472;2022-11-14T06:52:26;17.80;;;7.90;;
50769;SDS011;36740;48.698;11.472;2022-11-14T06:55:12;12.07;;;9.82;;
50769;SDS011;36740;48.698;11.472;2022-11-14T06:57:58;30.95;;;10.48;;
50769;SDS011;36740;48.698;11.472;2022-11-14T07:00:44;16.20;;;9.65;;
50769;SDS011;36740;48.698;11.472;2022-11-14T07:03:30;14.95;;;9.18;;
50769;SDS011;36740;48.698;11.472;2022-11-14T07:06:18;23.40;;;10.27;;
50769;SDS011;36740;48.698;11.472;2022-11-14T07:09:09;17.60;;;10.52;;
50769;SDS011;36740;48.698;11.472;2022-11-14T07:11:55;14.48;;;9.70;;
50769;SDS011;36740;48.698;11.472;2022-11-14T07:14:41;28.13;;;10.57;;
50769;SDS011;36740;48.698;11.472;2022-11-14T07:17:27;26.15;;;8.68;;
50769;SDS011;36740;48.698;11.472;2022-11-14T07:20:14;13.00;;;9.63;;
50769;SDS011;36740;48.698;11.472;2022-11-14T07:23:00;13.13;;;8.75;;
50769;SDS011;36740;48.698;11.472;2022-11-14T07:25:46;10.48;;;7.15;;
50769;SDS011;36740;48.698;11.472;2022-11-14T07:28:35;15.02;;;8.27;;
50769;SDS011;36740;48.698;11.472;2022-11-14T07:31:22;15.70;;;8.50;;
50769;SDS011;36740;48.698;11.472;2022-11-14T07:34:08;35.83;;;11.43;;
50769;SDS011;36740;48.698;11.472;2022-11-14T07:36:59;135.38;;;15.40;;
50769;SDS011;36740;48.698;11.472;2022-11-14T07:39:47;35.13;;;9.50;;
50769;SDS011;36740;48.698;11.472;2022-11-14T07:42:33;13.43;;;10.60;;
50769;SDS011;36740;48.698;11.472;2022-11-14T07:45:19;31.90;;;19.55;;
50769;SDS011;36740;48.698;11.472;2022-11-14T07:48:05;15.90;;;9.13;;
50769;SDS011;36740;48.698;11.472;2022-11-14T07:50:50;10.73;;;7.80;;
50769;SDS011;36740;48.698;11.472;2022-11-14T07:53:36;13.55;;;8.05;;
50769;SDS011;36740;48.698;11.472;2022-11-14T07:56:22;11.70;;;7.75;;
50769;SDS011;36740;48.698;11.472;2022-11-14T07:59:10;19.88;;;12.75;;
50769;SDS011;36740;48.698;11.472;2022-11-14T08:01:55;16.70;;;12.43;;
50769;SDS011;36740;48.698;11.472;2022-11-14T08:12:03;19.83;;;10.38;;
50769;SDS011;36740;48.698;11.472;2022-11-14T08:14:50;36.72;;;10.60;;
50769;SDS011;36740;48.698;11.472;2022-11-14T08:17:36;22.13;;;9.30;;
50769;SDS011;36740;48.698;11.472;2022-11-14T08:20:23;12.88;;;9.68;;
50769;SDS011;36740;48.698;11.472;2022-11-14T08:23:10;16.80;;;9.88;;
50769;SDS011;36740;48.698;11.472;2022-11-14T08:25:57;44.28;;;11.95;;
50769;SDS011;36740;48.698;11.472;2022-11-14T08:28:43;12.10;;;7.68;;
50769;SDS011;36740;48.698;11.472;2022-11-14T08:31:29;13.35;;;9.32;;
50769;SDS011;36740;48.698;11.472;2022-11-14T08:34:15;12.65;;;9.73;;
50769;SDS011;36740;48.698;11.472;2022-11-14T08:37:01;20.63;;;7.30;;
50769;SDS011;36740;48.698;11.472;2022-11-14T08:39:47;15.40;;;10.00;;
50769;SDS011;36740;48.698;11.472;2022-11-14T08:42:33;16.40;;;10.35;;
50769;SDS011;36740;48.698;11.472;2022-11-14T08:45:19;21.05;;;10.48;;
50769;SDS011;36740;48.698;11.472;2022-11-14T08:48:05;14.25;;;8.85;;
50769;SDS011;36740;48.698;11.472;2022-11-14T08:50:51;16.02;;;8.45;;
50769;SDS011;36740;48.698;11.472;2022-11-14T08:53:37;14.52;;;8.57;;
50769;SDS011;36740;48.698;11.472;2022-11-14T08:56:23;34.53;;;11.45;;
50769;SDS011;36740;48.698;11.472;2022-11-14T08:59:09;12.45;;;7.97;;
50769;SDS011;36740;48.698;11.472;2022-11-14T09:01:55;12.48;;;8.60;;
50769;SDS011;36740;48.698;11.472;2022-11-14T09:04:41;10.98;;;7.13;;
50769;SDS011;36740;48.698;11.472;2022-11-14T09:07:27;13.55;;;7.70;;
50769;SDS011;36740;48.698;11.472;2022-11-14T09:10:13;17.83;;;8.63;;
50769;SDS011;36740;48.698;11.472;2022-11-14T09:12:59;12.80;;;8.15;;
50769;SDS011;36740;48.698;11.472;2022-11-14T09:15:46;12.20;;;8.55;;
50769;SDS011;36740;48.698;11.472;2022-11-14T09:18:32;13.65;;;10.43;;
50769;SDS011;36740;48.698;11.472;2022-11-14T09:21:17;12.80;;;7.53;;
50769;SDS011;36740;48.698;11.472;2022-11-14T09:24:03;15.13;;;8.80;;
50769;SDS011;36740;48.698;11.472;2022-11-14T09:26:50;19.50;;;9.15;;
50769;SDS011;36740;48.698;11.472;2022-11-14T09:29:37;13.20;;;8.32;;
50769;SDS011;36740;48.698;11.472;2022-11-14T09:32:22;12.80;;;7.43;;
50769;SDS011;36740;48.698;11.472;2022-11-14T09:35:08;11.43;;;7.70;;
50769;SDS011;36740;48.698;11.472;2022-11-14T09:38:01;13.40;;;8.20;;
50769;SDS011;36740;48.698;11.472;2022-11-14T09:46:52;9.60;;;5.88;;
50769;SDS011;36740;48.698;11.472;2022-11-14T09:49:42;12.30;;;8.50;;
50769;SDS011;36740;48.698;11.472;2022-11-14T09:52:34;17.40;;;10.75;;
50769;SDS011;36740;48.698;11.472;2022-11-14T09:55:22;58.10;;;10.65;;
50769;SDS011;36740;48.698;11.472;2022-11-14T09:58:16;14.43;;;9.02;;
50769;SDS011;36740;48.698;11.472;2022-11-14T10:01:05;18.58;;;12.13;;
50769;SDS011;36740;48.698;11.472;2022-11-14T10:13:44;21.42;;;12.30;;
50769;SDS011;36740;48.698;11.472;2022-11-14T10:16:38;14.63;;;8.73;;
50769;SDS011;36740;48.698;11.472;2022-11-14T10:25:47;15.88;;;9.60;;
50769;SDS011;36740;48.698;11.472;2022-11-14T10:35:16;21.95;;;13.00;;
50769;SDS011;36740;48.698;11.472;2022-11-14T10:38:25;18.45;;;10.90;;
50769;SDS011;36740;48.698;11.472;2022-11-14T10:41:32;18.92;;;10.02;;
50769;SDS011;36740;48.698;11.472;2022-11-14T10:44:20;19.70;;;13.85;;
50769;SDS011;36740;48.698;11.472;2022-11-14T10:47:11;14.32;;;11.73;;
50769;SDS011;36740;48.698;11.472;2022-11-14T10:50:04;14.18;;;10.55;;
50769;SDS011;36740;48.698;11.472;2022-11-14T10:53:28;13.98;;;10.32;;
50769;SDS011;36740;48.698;11.472;2022-11-14T10:56:26;24.60;;;15.00;;
50769;SDS011;36740;48.698;11.472;2022-11-14T10:59:12;12.52;;;9.07;;
50769;SDS011;36740;48.698;11.472;2022-11-14T11:01:58;18.70;;;9.90;;
50769;SDS011;36740;48.698;11.472;2022-11-14T11:04:44;17.00;;;10.38;;
50769;SDS011;36740;48.698;11.472;2022-11-14T11:07:30;12.93;;;9.43;;
50769;SDS011;36740;48.698;11.472;2022-11-14T11:10:38;15.80;;;9.40;;
50769;SDS011;36740;48.698;11.472;2022-11-14T11:13:52;13.98;;;9.68;;
50769;SDS011;36740;48.698;11.472;2022-11-14T11:16:39;14.88;;;11.98;;
50769;SDS011;36740;48.698;11.472;2022-11-14T11:19:26;19.05;;;10.88;;
50769;SDS011;36740;48.698;11.472;2022-11-14T11:25:27;20.33;;;13.38;;
50769;SDS011;36740;48.698;11.472;2022-11-14T11:28:15;17.70;;;10.10;;
50769;SDS011;36740;48.698;11.472;2022-11-14T11:31:07;14.98;;;12.07;;
50769;SDS011;36740;48.698;11.472;2022-11-14T11:34:01;14.20;;;11.88;;
50769;SDS011;36740;48.698;11.472;2022-11-14T11:39:42;15.40;;;9.60;;
50769;SDS011;36740;48.698;11.472;2022-11-14T11:42:35;14.48;;;11.57;;
50769;SDS011;36740;48.698;11.472;2022-11-14T11:45:25;17.65;;;12.18;;
50769;SDS011;36740;48.698;11.472;2022-11-14T11:50:58;15.52;;;11.38;;
50769;SDS011;36740;48.698;11.472;2022-11-14T11:54:29;17.65;;;13.15;;
50769;SDS011;36740;48.698;11.472;2022-11-14T11:57:09;18.45;;;10.23;;
50769;SDS011;36740;48.698;11.472;2022-11-14T12:00:00;15.02;;;10.52;;
50769;SDS011;36740;48.698;11.472;2022-11-14T12:02:52;14.23;;;10.40;;
50769;SDS011;36740;48.698;11.472;2022-11-14T12:09:06;15.45;;;9.30;;
50769;SDS011;36740;48.698;11.472;2022-11-14T12:12:00;17.67;;;11.50;;
50769;SDS011;36740;48.698;11.472;2022-11-14T12:15:03;18.25;;;11.65;;
50769;SDS011;36740;48.698;11.472;2022-11-14T12:21:26;18.77;;;10.70;;
50769;SDS011;36740;48.698;11.472;2022-11-14T12:24:36;18.13;;;11.40;;
50769;SDS011;36740;48.698;11.472;2022-11-14T12:30:50;17.73;;;10.73;;
50769;SDS011;36740;48.698;11.472;2022-11-14T12:33:43;17.92;;;11.45;;
50769;SDS011;36740;48.698;11.472;2022-11-14T12:36:34;13.93;;;10.60;;
50769;SDS011;36740;48.698;11.472;2022-11-14T12:39:25;16.50;;;10.90;;
50769;SDS011;36740;48.698;11.472;2022-11-14T12:42:17;17.45;;;12.20;;
50769;SDS011;36740;48.698;11.472;2022-11-14T12:48:31;19.80;;;12.38;;
50769;SDS011;36740;48.698;11.472;2022-11-14T12:57:38;12.77;;;8.57;;
50769;SDS011;36740;48.698;11.472;2022-11-14T13:07:07;13.35;;;8.10;;
50769;SDS011;36740;48.698;11.472;2022-11-14T13:10:11;11.65;;;9.18;;
50769;SDS011;36740;48.698;11.472;2022-11-14T13:13:00;13.70;;;8.85;;
50769;SDS011;36740;48.698;11.472;2022-11-14T13:16:21;18.38;;;11.00;;
50769;SDS011;36740;48.698;11.472;2022-11-14T13:19:28;14.10;;;7.63;;
50769;SDS011;36740;48.698;11.472;2022-11-14T13:25:21;14.45;;;8.70;;
50769;SDS011;36740;48.698;11.472;2022-11-14T13:50:35;12.23;;;8.07;;
50769;SDS011;36740;48.698;11.472;2022-11-14T13:53:25;14.90;;;8.13;;
50769;SDS011;36740;48.698;11.472;2022-11-14T14:05:40;16.88;;;8.05;;
50769;SDS011;36740;48.698;11.472;2022-11-14T14:21:20;14.02;;;8.15;;
50769;SDS011;36740;48.698;11.472;2022-11-14T14:30:22;10.18;;;7.63;;
50769;SDS011;36740;48.698;11.472;2022-11-14T14:33:12;12.63;;;7.82;;
50769;SDS011;36740;48.698;11.472;2022-11-14T14:35:59;14.90;;;9.82;;
50769;SDS011;36740;48.698;11.472;2022-11-14T14:38:45;10.55;;;8.07;;
50769;SDS011;36740;48.698;11.472;2022-11-14T14:41:31;15.55;;;9.80;;
50769;SDS011;36740;48.698;11.472;2022-11-14T14:44:25;13.18;;;9.77;;
50769;SDS011;36740;48.698;11.472;2022-11-14T14:50:24;12.45;;;8.75;;
50769;SDS011;36740;48.698;11.472;2022-11-14T14:56:22;11.68;;;7.00;;
50769;SDS011;36740;48.698;11.472;2022-11-14T14:59:14;9.70;;;8.15;;
50769;SDS011;36740;48.698;11.472;2022-11-14T15:04:47;16.15;;;8.98;;
50769;SDS011;36740;48.698;11.472;2022-11-14T15:07:33;13.73;;;10.60;;
50769;SDS011;36740;48.698;11.472;2022-11-14T15:10:25;18.20;;;8.10;;
50769;SDS011;36740;48.698;11.472;2022-11-14T15:13:16;14.25;;;10.25;;
50769;SDS011;36740;48.698;11.472;2022-11-14T15:16:03;10.27;;;7.90;;
50769;SDS011;36740;48.698;11.472;2022-11-14T15:18:51;15.68;;;9.93;;
50769;SDS011;36740;48.698;11.472;2022-11-14T15:21:39;15.07;;;10.10;;
50769;SDS011;36740;48.698;11.472;2022-11-14T15:24:24;10.60;;;7.88;;
50769;SDS011;36740;48.698;11.472;2022-11-14T15:30:02;13.13;;;9.13;;
50769;SDS011;36740;48.698;11.472;2022-11-14T15:32:54;14.25;;;8.88;;
50769;SDS011;36740;48.698;11.472;2022-11-14T15:35:41;17.02;;;10.40;;
50769;SDS011;36740;48.698;11.472;2022-11-14T15:38:27;9.40;;;6.63;;
50769;SDS011;36740;48.698;11.472;2022-11-14T15:41:23;13.52;;;8.88;;
50769;SDS011;36740;48.698;11.472;2022-11-14T15:44:27;11.45;;;8.27;;
50769;SDS011;36740;48.698;11.472;2022-11-14T15:47:24;12.48;;;8.98;;
50769;SDS011;36740;48.698;11.472;2022-11-14T15:50:26;16.50;;;8.35;;
50769;SDS011;36740;48.698;11.472;2022-11-14T15:53:21;16.00;;;10.88;;
50769;SDS011;36740;48.698;11.472;2022-11-14T15:56:11;11.55;;;8.63;;
50769;SDS011;36740;48.698;11.472;2022-11-14T15:58:58;13.02;;;7.35;;
50769;SDS011;36740;48.698;11.472;2022-11-14T16:01:44;9.80;;;5.53;;
50769;SDS011;36740;48.698;11.472;2022-11-14T16:04:33;11.60;;;7.68;;
50769;SDS011;36740;48.698;11.472;2022-11-14T16:07:20;12.15;;;7.88;;
50769;SDS011;36740;48.698;11.472;2022-11-14T16:10:17;25.00;;;9.25;;
50769;SDS011;36740;48.698;11.472;2022-11-14T16:13:04;10.35;;;7.78;;
50769;SDS011;36740;48.698;11.472;2022-11-14T16:15:50;13.13;;;8.90;;
50769;SDS011;36740;48.698;11.472;2022-11-14T16:18:36;15.25;;;7.95;;
50769;SDS011;36740;48.698;11.472;2022-11-14T16:21:22;14.07;;;8.02;;
50769;SDS011;36740;48.698;11.472;2022-11-14T16:24:12;11.10;;;8.88;;
50769;SDS011;36740;48.698;11.472;2022-11-14T16:27:03;11.30;;;7.68;;
50769;SDS011;36740;48.698;11.472;2022-11-14T16:29:49;13.77;;;10.13;;
50769;SDS011;36740;48.698;11.472;2022-11-14T16:32:35;13.05;;;7.82;;
50769;SDS011;36740;48.698;11.472;2022-11-14T16:35:22;12.15;;;8.82;;
50769;SDS011;36740;48.698;11.472;2022-11-14T16:38:11;34.90;;;10.35;;
50769;SDS011;36740;48.698;11.472;2022-11-14T16:40:58;16.35;;;10.30;;
50769;SDS011;36740;48.698;11.472;2022-11-14T16:43:44;16.52;;;10.77;;
50769;SDS011;36740;48.698;11.472;2022-11-14T16:46:30;13.88;;;9.10;;
50769;SDS011;36740;48.698;11.472;2022-11-14T16:49:16;14.50;;;9.98;;
50769;SDS011;36740;48.698;11.472;2022-11-14T16:52:04;14.30;;;9.23;;
50769;SDS011;36740;48.698;11.472;2022-11-14T16:55:11;12.77;;;9.40;;
50769;SDS011;36740;48.698;11.472;2022-11-14T17:01:38;15.05;;;8.65;;
50769;SDS011;36740;48.698;11.472;2022-11-14T17:04:24;13.45;;;10.27;;
50769;SDS011;36740;48.698;11.472;2022-11-14T17:07:10;20.13;;;10.63;;
50769;SDS011;36740;48.698;11.472;2022-11-14T17:09:57;17.20;;;9.13;;
50769;SDS011;36740;48.698;11.472;2022-11-14T17:12:44;18.50;;;8.63;;
50769;SDS011;36740;48.698;11.472;2022-11-14T17:15:30;10.95;;;9.30;;
50769;SDS011;36740;48.698;11.472;2022-11-14T17:18:16;12.77;;;9.10;;
50769;SDS011;36740;48.698;11.472;2022-11-14T17:21:05;13.45;;;9.45;;
50769;SDS011;36740;48.698;11.472;2022-11-14T17:26:41;12.32;;;8.65;;
50769;SDS011;36740;48.698;11.472;2022-11-14T17:29:30;18.95;;;9.52;;
50769;SDS011;36740;48.698;11.472;2022-11-14T17:32:16;17.30;;;12.10;;
50769;SDS011;36740;48.698;11.472;2022-11-14T17:35:05;18.25;;;10.27;;
50769;SDS011;36740;48.698;11.472;2022-11-14T17:37:56;12.73;;;9.95;;
50769;SDS011;36740;48.698;11.472;2022-11-14T17:40:43;15.32;;;9.00;;
50769;SDS011;36740;48.698;11.472;2022-11-14T17:43:28;12.57;;;8.98;;
50769;SDS011;36740;48.698;11.472;2022-11-14T17:46:15;10.77;;;7.25;;
50769;SDS011;36740;48.698;11.472;2022-11-14T17:49:04;13.98;;;8.38;;
50769;SDS011;36740;48.698;11.472;2022-11-14T17:51:50;14.68;;;9.68;;
50769;SDS011;36740;48.698;11.472;2022-11-14T17:54:36;16.08;;;7.60;;
50769;SDS011;36740;48.698;11.472;2022-11-14T17:57:22;15.93;;;10.98;;
50769;SDS011;36740;48.698;11.472;2022-11-14T18:00:11;15.07;;;9.75;;
50769;SDS011;36740;48.698;11.472;2022-11-14T18:03:02;10.70;;;7.20;;
50769;SDS011;36740;48.698;11.472;2022-11-14T18:05:48;11.80;;;8.10;;
50769;SDS011;36740;48.698;11.472;2022-11-14T18:08:35;16.67;;;11.07;;
50769;SDS011;36740;48.698;11.472;2022-11-14T18:11:21;14.63;;;9.82;;
50769;SDS011;36740;48.698;11.472;2022-11-14T18:14:08;14.70;;;11.50;;
50769;SDS011;36740;48.698;11.472;2022-11-14T18:16:54;23.75;;;16.08;;
50769;SDS011;36740;48.698;11.472;2022-11-14T18:19:43;28.48;;;20.75;;
50769;SDS011;36740;48.698;11.472;2022-11-14T18:22:29;24.30;;;16.77;;
50769;SDS011;36740;48.698;11.472;2022-11-14T18:25:16;22.45;;;15.27;;
50769;SDS011;36740;48.698;11.472;2022-11-14T18:28:02;35.28;;;23.27;;
50769;SDS011;36740;48.698;11.472;2022-11-14T18:30:54;49.10;;;30.92;;
50769;SDS011;36740;48.698;11.472;2022-11-14T18:33:40;31.40;;;23.45;;
50769;SDS011;36740;48.698;11.472;2022-11-14T18:36:26;38.00;;;25.20;;
50769;SDS011;36740;48.698;11.472;2022-11-14T18:39:12;31.60;;;23.80;;
50769;SDS011;36740;48.698;11.472;2022-11-14T18:41:58;37.55;;;25.15;;
50769;SDS011;36740;48.698;11.472;2022-11-14T18:44:45;28.40;;;23.23;;
50769;SDS011;36740;48.698;11.472;2022-11-14T18:47:31;27.40;;;21.90;;
50769;SDS011;36740;48.698;11.472;2022-11-14T18:50:17;30.15;;;26.70;;